Time;durP1;ratioP1;P1;durP2;ratioP2;P2;SDS_P1;SDS_P2;PMS_P1;PMS_P2;Temp;Humidity;BMP_temperature;BMP_pressure;BME280_temperature;BME280_humidity;BME280_pressure;Samples;Min_cycle;Max_cycle;Signal;HPM_P1;HPM_P2
2023/01/09 00:01:48;;;;;;;;;0.50;0.50;;;;;8.72;67.30;99488.75;5061078;28;45485;-81
2023/01/09 00:04:13;;;;;;;;;2.00;1.00;;;;;8.65;67.30;99468.81;5054076;28;45327;-82
2023/01/09 00:06:41;;;;;;;;;1.00;1.00;;;;;8.62;67.88;99490.59;5058052;28;45398;-80
2023/01/09 00:09:07;;;;;;;;;3.00;1.00;;;;;8.49;68.11;99469.00;5041422;28;45891;-75
2023/01/09 00:11:32;;;;;;;;;0.75;0.75;;;;;8.45;68.06;99474.25;5059432;28;46408;-74
2023/01/09 00:13:58;;;;;;;;;2.75;0.75;;;;;8.60;68.46;99499.34;5058878;28;45447;-80
2023/01/09 00:16:24;;;;;;;;;2.75;1.00;;;;;8.64;68.38;99506.25;5060503;28;45452;-81
2023/01/09 00:18:52;;;;;;;;;2.00;1.75;;;;;8.58;68.24;99494.13;5060024;28;45343;-79
2023/01/09 00:21:18;;;;;;;;;0.00;0.00;;;;;8.75;68.68;99512.22;5037973;28;46803;-77
2023/01/09 00:23:44;;;;;;;;;1.00;1.00;;;;;8.72;68.03;99491.38;5053086;28;45769;-81
2023/01/09 00:26:11;;;;;;;;;0.00;0.00;;;;;8.75;68.33;99506.13;5054815;28;45446;-72
2023/01/09 00:28:37;;;;;;;;;1.75;0.00;;;;;8.78;68.03;99506.09;5055091;28;45517;-73
2023/01/09 00:31:04;;;;;;;;;0.50;0.50;;;;;8.68;67.96;99492.28;5038145;28;46572;-77
2023/01/09 00:33:35;;;;;;;;;0.25;0.25;;;;;8.62;67.97;99476.69;5058947;28;45415;-81
2023/01/09 00:36:01;;;;;;;;;2.00;0.00;;;;;8.70;67.78;99490.53;5041012;28;45371;-78
2023/01/09 00:38:27;;;;;;;;;4.00;1.00;;;;;8.84;67.69;99506.03;5057572;28;45622;-78
2023/01/09 00:40:54;;;;;;;;;4.00;1.50;;;;;8.80;67.86;99502.59;5054841;28;46374;-80
2023/01/09 00:43:23;;;;;;;;;2.00;1.00;;;;;8.78;68.15;99499.16;5020072;28;45680;-73
2023/01/09 00:45:49;;;;;;;;;1.25;1.00;;;;;8.64;68.45;99477.56;5056639;28;45474;-76
2023/01/09 00:48:25;;;;;;;;;0.25;0.00;;;;;8.36;67.92;99438.63;5055933;28;45395;-80
2023/01/09 00:50:52;;;;;;;;;2.25;1.00;;;;;8.67;68.24;99491.41;5054048;28;45482;-81
2023/01/09 00:53:22;;;;;;;;;0.00;0.00;;;;;8.65;68.40;99487.09;5058204;28;45493;-80
2023/01/09 00:55:48;;;;;;;;;4.50;1.00;;;;;8.60;68.14;99489.75;5044788;28;45334;-80
2023/01/09 00:58:14;;;;;;;;;1.00;0.75;;;;;8.65;68.12;99521.03;5059516;28;45320;-80
2023/01/09 01:00:39;;;;;;;;;2.25;1.00;;;;;8.67;68.23;99522.75;5055938;28;46191;-82
2023/01/09 01:03:05;;;;;;;;;0.50;0.50;;;;;8.61;68.24;99506.25;5056158;28;45518;-80
2023/01/09 01:08:17;;;;;;;;;0.75;0.75;;;;;8.67;68.39;99516.66;5059820;28;45331;-82
2023/01/09 01:10:44;;;;;;;;;1.00;1.00;;;;;8.76;68.42;99534.00;5056701;28;46039;-77
2023/01/09 01:13:12;;;;;;;;;3.25;1.00;;;;;8.78;67.96;99540.03;5036174;28;45540;-83
2023/01/09 01:15:40;;;;;;;;;3.25;1.00;;;;;8.47;67.98;99494.22;5057204;28;45407;-80
2023/01/09 01:18:06;;;;;;;;;4.00;1.00;;;;;8.69;67.65;99536.66;5054411;28;45410;-80
2023/01/09 01:20:31;;;;;;;;;2.25;1.00;;;;;8.67;68.12;99540.16;5053989;28;46455;-80
2023/01/09 01:22:57;;;;;;;;;2.00;0.50;;;;;8.65;68.20;99531.47;5054202;28;45489;-79
2023/01/09 01:25:23;;;;;;;;;2.00;1.00;;;;;8.63;67.97;99533.22;5035529;28;45293;-78
2023/01/09 01:27:48;;;;;;;;;3.50;2.00;;;;;8.60;67.81;99535.88;5054739;28;45358;-73
2023/01/09 01:30:16;;;;;;;;;1.50;0.75;;;;;8.52;67.91;99519.41;5054002;28;45636;-80
2023/01/09 01:32:41;;;;;;;;;0.75;0.75;;;;;8.40;68.19;99508.22;5053654;28;45356;-81
2023/01/09 01:35:08;;;;;;;;;3.00;0.75;;;;;8.23;68.16;99489.19;5053743;28;45421;-80
2023/01/09 01:37:35;;;;;;;;;1.25;0.50;;;;;8.64;68.66;99545.41;5035713;28;45832;-77
2023/01/09 01:40:01;;;;;;;;;0.00;0.00;;;;;8.56;67.96;99531.53;5053766;28;46559;-77
2023/01/09 01:42:27;;;;;;;;;0.25;0.25;;;;;8.74;68.23;99565.31;5054685;28;45867;-77
2023/01/09 01:45:00;;;;;;;;;4.00;0.75;;;;;8.74;68.00;99560.09;5058849;28;45408;-76
2023/01/09 01:47:34;;;;;;;;;2.25;1.00;;;;;8.70;67.86;99550.56;5057950;28;45433;-80
2023/01/09 01:50:08;;;;;;;;;1.25;1.00;;;;;8.70;67.67;99534.91;5056601;28;45581;-72
2023/01/09 01:52:36;;;;;;;;;5.75;1.75;;;;;8.62;68.22;99526.28;5058366;28;45360;-77
2023/01/09 01:55:04;;;;;;;;;2.50;1.00;;;;;8.64;68.38;99533.22;5039553;28;45458;-80
2023/01/09 01:57:33;;;;;;;;;2.25;1.25;;;;;8.77;67.98;99552.22;5057798;28;45656;-79
2023/01/09 02:00:02;;;;;;;;;2.00;1.50;;;;;8.81;67.95;99547.84;5039925;28;47537;-79
2023/01/09 02:02:30;;;;;;;;;2.00;0.75;;;;;8.58;68.07;99512.38;5044277;28;45651;-79
2023/01/09 02:04:59;;;;;;;;;2.25;1.00;;;;;8.88;67.85;99568.66;5060468;28;45430;-73
2023/01/09 02:07:25;;;;;;;;;2.25;0.75;;;;;8.87;68.07;99539.94;5040425;28;45573;-78
2023/01/09 02:09:52;;;;;;;;;3.00;1.25;;;;;8.70;68.04;99537.50;5042536;28;46854;-70
2023/01/09 02:12:22;;;;;;;;;2.00;0.00;;;;;8.73;68.18;99560.97;5042962;28;45475;-69
2023/01/09 02:14:57;;;;;;;;;1.00;1.00;;;;;8.56;68.17;99521.97;5057839;28;45551;-76
2023/01/09 02:17:53;;;;;;;;;2.75;1.00;;;;;8.78;68.28;99579.19;5057746;28;45351;-74
2023/01/09 02:20:25;;;;;;;;;1.00;1.00;;;;;8.77;68.26;99567.91;5042226;28;46351;-72
2023/01/09 02:23:38;;;;;;;;;2.75;0.75;;;;;8.50;68.66;99527.25;5057578;28;45632;-68
2023/01/09 02:26:32;;;;;;;;;4.00;1.00;;;;;8.74;68.62;99570.53;4974668;28;45510;-67
2023/01/09 02:29:20;;;;;;;;;5.75;1.00;;;;;8.74;68.52;99570.53;4960524;28;45599;-75
2023/01/09 02:31:56;;;;;;;;;1.00;1.00;;;;;8.68;68.81;99575.81;5034800;28;46106;-72
2023/01/09 02:34:34;;;;;;;;;2.00;2.00;;;;;8.63;68.80;99572.38;5041010;28;45518;-65
2023/01/09 02:37:24;;;;;;;;;2.75;1.00;;;;;8.61;69.17;99587.19;5039415;28;45670;-70
2023/01/09 02:40:18;;;;;;;;;1.75;0.50;;;;;8.43;69.70;99538.63;5040031;28;45448;-67
2023/01/09 02:42:46;;;;;;;;;0.00;0.00;;;;;8.53;69.24;99561.16;5058202;28;46392;-67
2023/01/09 02:45:14;;;;;;;;;3.25;1.00;;;;;8.49;69.45;99588.16;5043223;28;45529;-65
2023/01/09 02:47:43;;;;;;;;;4.25;0.00;;;;;8.61;69.48;99613.28;5073442;28;45405;-75
2023/01/09 02:50:23;;;;;;;;;1.00;1.00;;;;;8.52;69.05;99582.03;5058450;28;45472;-76
2023/01/09 02:53:06;;;;;;;;;0.75;0.75;;;;;8.64;69.47;99595.88;5031347;28;46745;-80
2023/01/09 02:55:45;;;;;;;;;1.00;1.00;;;;;8.35;69.28;99553.44;5062078;28;45293;-80
2023/01/09 02:58:42;;;;;;;;;3.25;2.00;;;;;8.64;69.37;99600.22;5072922;28;45382;-80
2023/01/09 03:01:20;;;;;;;;;1.50;1.50;;;;;8.65;69.41;99592.38;5071099;28;45545;-73
2023/01/09 03:03:58;;;;;;;;;4.00;2.50;;;;;8.58;69.35;99561.13;5065740;28;47933;-82
2023/01/09 03:06:43;;;;;;;;;2.50;0.75;;;;;8.51;69.37;99551.59;5040326;28;45671;-80
2023/01/09 03:09:23;;;;;;;;;2.75;0.00;;;;;8.61;69.66;99582.84;5041478;28;45490;-79
2023/01/09 03:11:56;;;;;;;;;2.00;0.75;;;;;8.63;69.51;99585.44;5061136;28;45733;-73
2023/01/09 03:14:24;;;;;;;;;2.00;1.75;;;;;8.67;69.42;99589.75;5060522;28;45477;-73
2023/01/09 03:16:56;;;;;;;;;3.25;0.75;;;;;8.73;69.49;99591.44;5042622;28;45774;-77
2023/01/09 03:19:24;;;;;;;;;1.00;1.00;;;;;8.68;69.42;99591.47;5043070;28;45363;-82
2023/01/09 03:21:52;;;;;;;;;1.25;0.00;;;;;8.66;69.18;99582.78;5063411;28;45718;-79
2023/01/09 03:24:17;;;;;;;;;5.00;1.75;;;;;8.72;69.27;99595.78;5034396;28;46284;-76
2023/01/09 03:26:43;;;;;;;;;2.25;0.50;;;;;8.72;69.15;99592.31;5059427;28;45313;-80
2023/01/09 03:29:09;;;;;;;;;2.50;1.00;;;;;8.77;68.84;99587.91;5074305;27;45465;-80
2023/01/09 03:31:34;;;;;;;;;3.50;0.75;;;;;8.37;68.96;99539.50;5056052;28;45554;-71
2023/01/09 03:34:00;;;;;;;;;2.25;0.00;;;;;8.69;69.42;99593.22;5038361;28;47813;-78
2023/01/09 03:36:26;;;;;;;;;2.25;1.00;;;;;8.77;69.22;99607.06;5042499;28;45568;-74
2023/01/09 03:38:51;;;;;;;;;3.00;0.75;;;;;8.57;69.20;99567.22;5042135;28;45745;-81
2023/01/09 03:41:18;;;;;;;;;4.75;2.00;;;;;8.72;69.08;99592.31;5038537;28;45561;-71
2023/01/09 03:43:44;;;;;;;;;2.00;1.00;;;;;8.79;69.04;99618.34;5055977;28;46777;-79
2023/01/09 03:46:10;;;;;;;;;2.00;1.00;;;;;8.54;68.96;99560.25;5037530;28;45414;-78
2023/01/09 03:48:35;;;;;;;;;2.00;0.00;;;;;8.65;69.07;99581.06;5056455;28;45636;-79
2023/01/09 03:51:01;;;;;;;;;1.75;1.00;;;;;8.72;69.29;99592.31;5039530;28;45277;-79
2023/01/09 03:53:27;;;;;;;;;1.00;1.00;;;;;8.80;68.73;99600.94;5059571;28;46240;-82
2023/01/09 03:55:55;;;;;;;;;0.00;0.00;;;;;8.90;68.61;99623.50;5056501;28;45339;-78
2023/01/09 03:58:22;;;;;;;;;1.25;0.00;;;;;8.84;68.99;99611.34;5061383;28;45503;-79
2023/01/09 04:00:49;;;;;;;;;1.50;1.00;;;;;8.82;69.06;99613.09;5067348;28;45455;-80
2023/01/09 04:03:16;;;;;;;;;3.00;1.00;;;;;8.77;68.95;99606.19;5050004;28;46907;-81
2023/01/09 04:05:44;;;;;;;;;4.50;0.00;;;;;8.72;69.06;99614.06;5062744;28;45652;-78
2023/01/09 04:08:12;;;;;;;;;1.25;0.00;;;;;8.60;69.47;99601.97;5039842;28;45382;-80
2023/01/09 04:10:38;;;;;;;;;1.00;1.00;;;;;8.69;69.27;99619.31;5045796;28;45501;-75
2023/01/09 04:13:04;;;;;;;;;0.00;0.00;;;;;8.57;69.29;99603.75;5044838;28;45671;-77
2023/01/09 04:15:30;;;;;;;;;1.75;1.00;;;;;8.69;68.84;99640.22;5059800;28;45418;-78
2023/01/09 04:17:56;;;;;;;;;3.00;0.25;;;;;8.65;69.37;99641.09;5038101;28;45878;-78
2023/01/09 04:20:22;;;;;;;;;4.00;1.00;;;;;8.67;69.60;99653.25;5057849;28;45819;-79
2023/01/09 04:22:47;;;;;;;;;1.00;1.00;;;;;8.53;69.52;99622.94;5056359;28;46476;-79
2023/01/09 04:25:13;;;;;;;;;3.50;2.00;;;;;8.81;69.48;99667.97;5055386;28;45347;-78
2023/01/09 04:27:39;;;;;;;;;4.00;0.75;;;;;8.85;68.83;99664.44;5055390;28;45454;-81
2023/01/09 04:30:05;;;;;;;;;3.00;0.00;;;;;8.83;68.77;99656.63;5059470;28;45397;-80
2023/01/09 04:32:31;;;;;;;;;2.00;0.00;;;;;8.92;68.34;99666.09;5059867;28;45431;-81
2023/01/09 04:34:57;;;;;;;;;1.00;1.00;;;;;8.86;68.83;99659.19;5059590;28;45529;-79
2023/01/09 04:37:23;;;;;;;;;2.50;1.00;;;;;8.86;68.91;99658.34;5056394;28;45430;-79
2023/01/09 04:39:50;;;;;;;;;1.00;0.75;;;;;8.80;68.83;99647.94;5054783;28;45393;-79
2023/01/09 04:42:16;;;;;;;;;3.50;0.00;;;;;8.81;69.38;99653.16;5054136;28;45800;-71
2023/01/09 04:44:42;;;;;;;;;5.50;1.00;;;;;8.57;69.39;99622.03;5055517;28;45425;-80
2023/01/09 04:47:07;;;;;;;;;1.00;1.00;;;;;8.72;68.98;99634.94;5059036;28;45428;-76
2023/01/09 04:49:33;;;;;;;;;2.00;1.00;;;;;8.72;69.23;99631.47;5057450;28;45410;-76
2023/01/09 04:51:59;;;;;;;;;4.00;1.00;;;;;8.85;69.01;99652.25;5055206;28;45464;-79
2023/01/09 04:54:24;;;;;;;;;1.75;0.00;;;;;8.70;68.94;99627.13;5055066;28;45513;-72
2023/01/09 04:56:50;;;;;;;;;0.00;0.00;;;;;8.78;69.04;99634.03;5055131;28;45426;-77
2023/01/09 04:59:16;;;;;;;;;4.50;1.25;;;;;8.94;69.05;99661.75;5056849;28;46844;-69
2023/01/09 05:01:41;;;;;;;;;1.00;0.00;;;;;8.83;69.06;99637.50;5065214;28;46908;-79
2023/01/09 05:04:07;;;;;;;;;2.00;1.00;;;;;8.77;69.02;99627.09;5051502;28;45440;-76
2023/01/09 05:06:33;;;;;;;;;2.25;1.00;;;;;8.86;68.88;99653.97;5056672;28;45300;-80
2023/01/09 05:08:59;;;;;;;;;2.75;1.00;;;;;8.94;68.82;99659.13;5058850;28;45486;-80
2023/01/09 05:11:25;;;;;;;;;3.25;0.50;;;;;8.90;68.44;99649.63;5044273;28;45744;-69
2023/01/09 05:13:52;;;;;;;;;2.00;1.00;;;;;8.95;68.75;99665.25;5058735;28;45435;-75
2023/01/09 05:16:17;;;;;;;;;1.50;1.00;;;;;8.93;68.54;99669.59;5056524;28;45382;-74
2023/01/09 05:18:43;;;;;;;;;2.00;0.00;;;;;8.79;68.59;99647.06;5036775;28;45646;-76
2023/01/09 05:21:09;;;;;;;;;3.00;0.25;;;;;8.85;69.10;99670.53;5036361;28;45386;-81
2023/01/09 05:23:35;;;;;;;;;1.00;0.00;;;;;8.83;69.14;99682.72;5054774;28;45389;-78
2023/01/09 05:26:03;;;;;;;;;0.00;0.00;;;;;8.89;69.05;99680.06;5035926;28;45518;-80
2023/01/09 05:28:29;;;;;;;;;1.00;1.00;;;;;8.94;68.75;99672.19;5054228;28;45359;-80
2023/01/09 05:30:55;;;;;;;;;1.50;1.00;;;;;8.87;68.77;99673.13;5035979;28;46541;-79
2023/01/09 05:33:20;;;;;;;;;1.00;1.00;;;;;8.95;68.86;99707.88;5054149;28;45703;-77
2023/01/09 05:35:46;;;;;;;;;0.25;0.25;;;;;8.93;68.98;99698.34;5054820;28;45513;-73
2023/01/09 05:38:12;;;;;;;;;4.25;0.75;;;;;8.81;68.55;99681.88;5055208;28;45301;-73
2023/01/09 05:40:37;;;;;;;;;2.00;1.00;;;;;8.90;68.59;99709.69;5054797;28;46599;-74
2023/01/09 05:43:03;;;;;;;;;3.00;1.00;;;;;8.96;68.50;99713.97;5057030;28;45254;-78
2023/01/09 05:45:28;;;;;;;;;1.50;0.75;;;;;8.87;68.77;99688.78;5058894;28;45410;-77
2023/01/09 05:47:54;;;;;;;;;2.00;0.75;;;;;8.89;68.34;99694.88;5057199;28;45416;-77
2023/01/09 05:50:20;;;;;;;;;0.25;0.25;;;;;9.10;67.98;99723.41;5056123;28;46039;-74
2023/01/09 05:52:46;;;;;;;;;0.00;0.00;;;;;9.16;68.18;99719.03;5063066;28;45425;-79
2023/01/09 05:55:12;;;;;;;;;0.00;0.00;;;;;9.19;67.78;99726.84;5066638;28;45398;-72
2023/01/09 05:57:38;;;;;;;;;0.75;0.00;;;;;8.98;67.36;99696.53;5064183;28;45647;-73
2023/01/09 06:00:05;;;;;;;;;0.50;0.00;;;;;8.84;66.99;99660.94;5064494;28;45504;-71
2023/01/09 06:02:30;;;;;;;;;1.00;1.00;;;;;9.13;66.84;99720.81;5043998;28;45277;-63
2023/01/09 06:04:56;;;;;;;;;2.50;1.00;;;;;9.21;66.13;99746.00;5059621;28;45381;-71
2023/01/09 06:07:21;;;;;;;;;0.00;0.00;;;;;9.09;67.07;99733.91;5062950;28;45336;-69
2023/01/09 06:09:47;;;;;;;;;0.00;0.00;;;;;9.16;66.57;99743.41;5053724;28;45232;-70
2023/01/09 06:12:13;;;;;;;;;0.00;0.00;;;;;9.15;66.34;99730.34;5062900;28;45724;-68
2023/01/09 06:14:38;;;;;;;;;3.25;0.25;;;;;9.13;65.95;99728.66;5057890;28;45444;-77
2023/01/09 06:17:05;;;;;;;;;0.00;0.00;;;;;9.00;65.81;99719.16;5055465;28;45352;-74
2023/01/09 06:19:31;;;;;;;;;0.00;0.00;;;;;9.02;66.09;99727.84;5040665;28;47137;-82
2023/01/09 06:21:56;;;;;;;;;0.00;0.00;;;;;8.94;65.93;99713.97;5060531;28;45363;-74
2023/01/09 06:24:22;;;;;;;;;0.00;0.00;;;;;9.04;65.89;99726.09;5060007;28;45481;-65
2023/01/09 06:26:47;;;;;;;;;4.75;0.50;;;;;9.14;65.77;99745.19;5058667;28;45408;-77
2023/01/09 06:29:14;;;;;;;;;0.25;0.25;;;;;9.05;65.67;99729.56;5055439;28;45907;-74
2023/01/09 06:31:39;;;;;;;;;1.00;0.00;;;;;9.12;65.33;99737.34;5049710;28;45402;-80
2023/01/09 06:34:05;;;;;;;;;2.00;1.50;;;;;9.12;64.92;99744.31;5067594;28;45341;-74
2023/01/09 06:36:31;;;;;;;;;1.75;0.00;;;;;9.24;64.85;99766.88;5066494;28;45272;-75
2023/01/09 06:38:56;;;;;;;;;0.00;0.00;;;;;9.11;64.91;99753.00;5066885;28;45469;-72
2023/01/09 06:41:23;;;;;;;;;2.00;0.00;;;;;9.16;64.96;99756.47;5066764;28;45377;-76
2023/01/09 06:43:48;;;;;;;;;1.00;0.00;;;;;9.17;64.96;99754.72;5068213;28;45422;-67
2023/01/09 06:46:14;;;;;;;;;1.00;0.00;;;;;9.20;64.37;99770.38;5068567;28;45422;-79
2023/01/09 06:48:39;;;;;;;;;0.75;0.00;;;;;9.14;64.19;99758.25;5049097;28;47008;-77
2023/01/09 06:51:06;;;;;;;;;2.50;0.00;;;;;9.28;63.85;99779.03;5070520;28;45753;-80
2023/01/09 06:53:33;;;;;;;;;1.75;1.00;;;;;9.24;63.88;99780.78;5073938;28;45283;-73
2023/01/09 06:56:03;;;;;;;;;0.50;0.50;;;;;9.07;63.66;99764.38;5061435;28;44838;-77
2023/01/09 06:58:29;;;;;;;;;0.50;0.50;;;;;9.11;63.68;99784.38;5056512;28;45616;-81
2023/01/09 07:00:55;;;;;;;;;3.25;0.00;;;;;9.23;64.08;99801.69;5056601;28;45469;-79
2023/01/09 07:03:21;;;;;;;;;0.00;0.00;;;;;9.26;63.50;99797.31;5057133;28;45629;-78
2023/01/09 07:05:48;;;;;;;;;1.25;0.50;;;;;9.23;63.83;99801.69;5056949;28;45768;-68
2023/01/09 07:08:14;;;;;;;;;0.00;0.00;;;;;9.28;63.57;99806.03;5055804;28;46639;-80
2023/01/09 07:10:42;;;;;;;;;1.50;0.00;;;;;9.25;63.52;99816.47;5055703;28;45312;-80
2023/01/09 07:13:08;;;;;;;;;0.00;0.00;;;;;9.15;63.63;99806.97;5055490;28;45707;-71
2023/01/09 07:15:34;;;;;;;;;0.00;0.00;;;;;9.18;63.63;99814.78;5074050;28;45408;-80
2023/01/09 07:17:59;;;;;;;;;0.00;0.00;;;;;9.21;63.28;99812.19;5056131;28;45422;-74
2023/01/09 07:20:25;;;;;;;;;1.00;0.00;;;;;9.20;63.09;99809.56;5055568;28;45832;-75
2023/01/09 07:22:51;;;;;;;;;0.00;0.00;;;;;9.17;62.86;99815.69;5059958;28;45500;-80
2023/01/09 07:25:16;;;;;;;;;0.50;0.00;;;;;9.24;63.22;99821.72;5044016;28;45457;-79
2023/01/09 07:27:42;;;;;;;;;0.00;0.00;;;;;9.19;62.85;99806.09;5062287;28;45363;-79
2023/01/09 07:30:08;;;;;;;;;1.00;0.00;;;;;9.21;62.40;99821.78;5060569;28;45543;-77
2023/01/09 07:32:34;;;;;;;;;1.00;0.00;;;;;9.13;62.36;99821.78;5057738;28;45581;-75
2023/01/09 07:35:00;;;;;;;;;0.00;0.00;;;;;9.00;62.59;99802.75;5056406;28;45467;-77
2023/01/09 07:37:25;;;;;;;;;1.00;0.00;;;;;9.09;62.52;99825.31;5037329;28;46954;-80
2023/01/09 07:39:51;;;;;;;;;2.50;0.00;;;;;9.00;62.59;99805.34;5056441;28;45335;-78
2023/01/09 07:42:17;;;;;;;;;1.00;0.00;;;;;8.95;62.26;99803.66;5057133;28;45504;-77
2023/01/09 07:44:43;;;;;;;;;0.00;0.00;;;;;9.01;62.57;99817.53;5041850;28;45617;-79
2023/01/09 07:47:08;;;;;;;;;0.75;0.75;;;;;9.06;62.19;99833.16;5059234;28;45873;-80
2023/01/09 07:49:34;;;;;;;;;6.00;3.00;;;;;8.90;62.51;99815.00;5055377;28;45525;-78
2023/01/09 07:51:59;;;;;;;;;0.00;0.00;;;;;9.00;62.61;99828.00;5056027;28;45383;-81
2023/01/09 07:54:25;;;;;;;;;0.00;0.00;;;;;9.01;62.91;99843.63;5059722;28;45746;-80
2023/01/09 07:56:51;;;;;;;;;0.00;0.00;;;;;9.03;62.54;99852.34;5057532;28;46299;-79
2023/01/09 07:59:17;;;;;;;;;3.00;0.00;;;;;8.99;62.37;99850.59;5037551;28;45809;-70
2023/01/09 08:01:42;;;;;;;;;0.00;0.00;;;;;9.09;62.58;99862.75;5038509;28;45471;-80
2023/01/09 08:04:08;;;;;;;;;0.50;0.00;;;;;9.04;62.48;99855.81;5055788;28;45430;-79
2023/01/09 08:06:34;;;;;;;;;0.00;0.00;;;;;9.16;62.14;99871.44;5037753;28;45962;-79
2023/01/09 08:08:59;;;;;;;;;1.00;0.00;;;;;9.06;62.00;99860.19;5054478;28;45505;-79
2023/01/09 08:11:25;;;;;;;;;0.25;0.00;;;;;9.13;62.04;99871.44;5055984;28;45798;-78
2023/01/09 08:13:51;;;;;;;;;1.25;0.00;;;;;9.17;62.01;99875.78;5060130;28;45832;-79
2023/01/09 08:16:17;;;;;;;;;0.00;0.00;;;;;9.15;61.87;99864.47;5062537;28;45450;-77
2023/01/09 08:18:42;;;;;;;;;0.25;0.00;;;;;9.21;62.05;99871.41;5057474;28;45505;-80
2023/01/09 08:21:10;;;;;;;;;0.00;0.00;;;;;9.19;61.21;99874.03;5057814;28;45433;-81
2023/01/09 08:23:35;;;;;;;;;3.00;0.00;;;;;9.23;61.25;99870.53;5056855;28;45528;-79
2023/01/09 08:26:03;;;;;;;;;0.00;0.00;;;;;9.41;61.28;99886.94;5038963;28;45736;-81
2023/01/09 08:28:29;;;;;;;;;1.25;0.00;;;;;9.49;60.97;99901.72;5064121;28;45440;-79
2023/01/09 08:30:57;;;;;;;;;0.00;0.00;;;;;9.47;61.10;99893.00;5060914;28;45487;-78
2023/01/09 08:33:22;;;;;;;;;2.00;0.25;;;;;9.53;60.66;99907.75;5063303;28;45897;-79
2023/01/09 08:35:48;;;;;;;;;1.00;0.00;;;;;9.60;60.64;99919.06;5060921;28;45519;-76
2023/01/09 08:38:14;;;;;;;;;0.00;0.00;;;;;9.54;60.68;99878.16;5059892;28;45369;-79
2023/01/09 08:40:39;;;;;;;;;0.75;0.00;;;;;9.69;59.93;99914.63;5058049;28;45482;-76
2023/01/09 08:48:34;;;;;;;;;1.25;0.00;;;;;9.73;59.30;99905.03;5057187;28;45291;-81
2023/01/09 08:50:59;;;;;;;;;1.00;0.00;;;;;9.86;59.18;99927.56;5059207;28;45426;-82
2023/01/09 08:53:25;;;;;;;;;1.00;0.00;;;;;9.74;59.35;99910.22;5057169;28;45553;-79
2023/01/09 08:55:50;;;;;;;;;0.75;0.00;;;;;9.98;58.83;99943.16;5037143;28;47964;-81
2023/01/09 08:58:16;;;;;;;;;0.75;0.00;;;;;9.80;58.86;99914.56;5037677;28;44872;-78
2023/01/09 09:00:42;;;;;;;;;1.25;0.00;;;;;9.72;59.20;99929.41;5077076;28;45381;-77
2023/01/09 09:03:10;;;;;;;;;1.25;0.00;;;;;9.66;59.44;99930.34;5066596;28;45296;-78
2023/01/09 09:05:36;;;;;;;;;0.00;0.00;;;;;9.59;59.89;99938.25;5050164;28;47625;-69
2023/01/09 09:08:02;;;;;;;;;0.00;0.00;;;;;9.63;59.90;99945.16;5067539;28;45247;-73
2023/01/09 09:10:28;;;;;;;;;0.00;0.00;;;;;9.62;59.28;99951.28;5065460;28;45546;-80
2023/01/09 09:12:57;;;;;;;;;1.00;0.00;;;;;9.94;58.76;99972.84;5064166;28;45434;-79
2023/01/09 09:15:25;;;;;;;;;0.00;0.00;;;;;9.94;58.51;99966.72;5057678;28;46125;-78
2023/01/09 09:17:56;;;;;;;;;0.00;0.00;;;;;9.99;58.51;99988.53;5025316;28;45633;-73
2023/01/09 14:26:57;;;;;;;;;0.75;0.00;;;;;8.29;73.30;100352.72;5129246;27;45675;-76
2023/01/09 14:29:35;;;;;;;;;0.50;0.00;;;;;8.41;72.56;100349.31;5111127;27;45502;-68
2023/01/09 14:32:22;;;;;;;;;0.00;0.00;;;;;8.62;72.34;100372.03;5109603;27;45564;-74
2023/01/09 14:34:56;;;;;;;;;1.50;0.00;;;;;8.78;72.07;100365.13;5102454;27;45279;-76
2023/01/09 14:37:23;;;;;;;;;0.50;0.00;;;;;8.97;71.39;100384.31;5111318;27;45718;-74
2023/01/09 14:39:50;;;;;;;;;3.25;0.00;;;;;9.02;71.48;100378.25;5108443;27;45317;-72
2023/01/09 14:42:23;;;;;;;;;0.50;0.50;;;;;9.07;70.98;100379.16;5105300;27;45324;-76
2023/01/09 14:45:01;;;;;;;;;1.25;0.00;;;;;9.27;70.37;100396.59;5115062;27;45334;-74
2023/01/09 14:47:31;;;;;;;;;2.00;0.25;;;;;9.35;70.21;100415.81;5111140;27;45509;-77
2023/01/09 14:50:18;;;;;;;;;0.50;0.00;;;;;9.31;69.72;100414.91;5111353;27;45407;-76
2023/01/09 14:52:51;;;;;;;;;0.25;0.25;;;;;9.38;70.00;100418.41;5110046;27;45843;-73
2023/01/09 14:55:25;;;;;;;;;1.25;0.00;;;;;9.41;69.48;100422.78;5114353;27;45436;-68
2023/01/09 14:57:55;;;;;;;;;1.00;1.00;;;;;9.44;69.78;100415.78;5126809;27;47887;-76
2023/01/09 15:00:22;;;;;;;;;0.00;0.00;;;;;9.51;69.85;100427.13;5111556;27;45464;-75
2023/01/09 15:02:50;;;;;;;;;1.00;1.00;;;;;9.49;69.45;100434.09;5111197;27;45546;-75
2023/01/09 15:05:36;;;;;;;;;1.00;1.00;;;;;9.57;69.25;100450.69;5114469;27;45397;-75
2023/01/09 15:08:04;;;;;;;;;0.50;0.00;;;;;9.59;68.91;100450.69;5111543;27;46617;-72
2023/01/09 15:10:37;;;;;;;;;2.00;0.00;;;;;9.63;69.24;100453.28;5109931;27;45408;-73
2023/01/09 15:13:06;;;;;;;;;2.75;0.00;;;;;9.49;68.93;100419.31;5116544;27;45372;-73
2023/01/09 15:15:34;;;;;;;;;0.00;0.00;;;;;9.61;68.28;100452.44;5111843;27;45604;-76
2023/01/09 15:18:09;;;;;;;;;1.75;1.00;;;;;9.30;68.61;100421.03;5112375;27;46513;-75
2023/01/09 15:20:36;;;;;;;;;0.00;0.00;;;;;9.56;67.89;100467.22;5130332;27;44814;-70
2023/01/09 15:23:04;;;;;;;;;1.00;0.00;;;;;9.58;67.67;100485.53;5109445;27;46027;-74
2023/01/09 15:25:32;;;;;;;;;0.00;0.00;;;;;9.55;67.61;100482.03;5109330;27;45694;-73
2023/01/09 15:28:00;;;;;;;;;2.00;1.00;;;;;9.24;67.68;100439.28;5110921;27;45601;-76
2023/01/09 15:30:33;;;;;;;;;0.00;0.00;;;;;9.53;67.86;100498.59;5109906;27;45530;-77
2023/01/09 15:33:09;;;;;;;;;2.00;0.00;;;;;9.45;67.43;100492.50;5104059;27;45421;-77
2023/01/09 15:35:41;;;;;;;;;0.00;0.00;;;;;9.44;67.16;100504.66;5112442;27;45494;-75
2023/01/09 15:38:13;;;;;;;;;0.25;0.25;;;;;9.47;67.85;100515.16;5092714;27;45413;-73
2023/01/09 15:40:39;;;;;;;;;2.00;0.25;;;;;9.38;67.98;100496.81;5093403;27;45485;-72
2023/01/09 15:43:13;;;;;;;;;2.00;0.75;;;;;9.43;67.20;100518.63;5096601;27;45701;-74
2023/01/09 15:45:44;;;;;;;;;1.75;1.25;;;;;9.40;67.70;100523.84;5097174;27;45742;-78
2023/01/09 15:48:28;;;;;;;;;3.25;1.00;;;;;9.45;67.56;100521.25;5098272;27;46247;-73
2023/01/09 15:51:18;;;;;;;;;3.75;0.00;;;;;9.39;67.46;100522.09;5096789;27;45501;-75
2023/01/09 15:53:50;;;;;;;;;0.50;0.50;;;;;9.38;67.48;100525.56;5096169;27;45403;-75
2023/01/09 15:56:29;;;;;;;;;1.50;0.00;;;;;9.40;67.31;100541.28;5106533;27;45606;-76
2023/01/09 15:58:57;;;;;;;;;0.75;0.00;;;;;9.41;67.14;100543.00;5076030;27;45543;-75
2023/01/09 16:01:28;;;;;;;;;3.00;0.25;;;;;9.35;66.59;100541.25;5078659;27;45540;-74
2023/01/09 16:03:59;;;;;;;;;5.00;0.00;;;;;9.37;65.92;100551.69;5075323;27;45557;-75
2023/01/09 16:06:29;;;;;;;;;0.75;0.75;;;;;9.31;65.41;100542.97;5084586;27;45585;-77
2023/01/09 16:08:57;;;;;;;;;2.75;1.00;;;;;9.27;64.99;100542.94;5076731;27;45527;-75
2023/01/09 16:11:32;;;;;;;;;3.00;0.00;;;;;9.36;64.90;100568.25;5094164;27;45427;-73
2023/01/09 16:14:17;;;;;;;;;0.75;0.75;;;;;9.37;64.39;100573.47;5112992;27;45388;-76
2023/01/09 16:16:45;;;;;;;;;0.75;0.00;;;;;9.12;63.70;100544.63;5097499;27;45507;-76
2023/01/09 16:19:44;;;;;;;;;2.00;0.00;;;;;9.37;63.90;100593.53;5113600;27;46921;-76
2023/01/09 16:22:20;;;;;;;;;1.00;1.00;;;;;9.37;63.65;100607.47;5096062;27;45372;-75
2023/01/09 16:24:47;;;;;;;;;0.75;0.75;;;;;9.34;63.85;100605.72;5097549;27;45485;-79
2023/01/09 16:27:16;;;;;;;;;2.00;0.00;;;;;9.33;63.55;100621.41;5117369;27;45405;-78
2023/01/09 16:29:48;;;;;;;;;0.75;0.75;;;;;9.29;63.79;100623.09;5100646;27;46651;-78
2023/01/09 16:32:28;;;;;;;;;0.75;0.75;;;;;9.21;63.97;100632.66;5096360;27;45432;-79
2023/01/09 16:34:57;;;;;;;;;1.00;1.00;;;;;9.24;63.86;100643.13;5087996;27;45381;-74
2023/01/09 16:37:24;;;;;;;;;1.00;1.00;;;;;9.23;64.48;100641.38;5081400;27;45466;-76
2023/01/09 16:40:07;;;;;;;;;4.25;0.75;;;;;9.28;64.12;100657.09;5096069;27;45969;-75
2023/01/09 16:45:20;;;;;;;;;3.00;1.00;;;;;9.27;64.36;100663.16;5099871;27;45455;-73
2023/01/09 16:47:45;;;;;;;;;2.75;0.75;;;;;9.02;64.29;100629.06;5099315;27;45510;-78
2023/01/09 16:50:12;;;;;;;;;2.50;1.00;;;;;9.30;64.73;100669.31;5095341;27;45448;-73
2023/01/09 16:52:38;;;;;;;;;1.25;1.25;;;;;9.27;64.44;100671.00;5085621;27;45697;-75
2023/01/09 16:55:04;;;;;;;;;1.00;1.00;;;;;9.33;64.41;100684.13;5088083;27;45479;-72
2023/01/09 16:57:34;;;;;;;;;0.50;0.00;;;;;9.16;64.81;100675.28;5081282;27;45639;-76
2023/01/09 17:00:00;;;;;;;;;2.00;1.00;;;;;9.31;64.31;100705.03;5075470;27;45555;-75
2023/01/09 17:02:26;;;;;;;;;5.00;1.75;;;;;9.13;64.28;100690.09;5093525;27;45512;-77
2023/01/09 17:04:55;;;;;;;;;0.25;0.25;;;;;9.31;64.76;100717.22;5106618;27;45383;-77